Date,TemperatureHighF,TemperatureAvgF,TemperatureLowF,DewpointHighF,DewpointAvgF,DewpointLowF,HumidityHigh,HumidityAvg,HumidityLow,PressureMaxIn,PressureMinIn,WindSpeedMaxMPH,WindSpeedAvgMPH,GustSpeedMaxMPH,PrecipitationSumIn
2012-12-1,81.3,67.5,55.2,59.7,-53.8,-99.9,48,12,3,30.16,30.07,17,2,22,0.00
2012-12-2,82.9,70.0,60.0,59.6,-60.0,-99.9,49,11,3,30.19,30.08,17,3,24,0.01
2012-12-3,82.1,68.9,59.0,60.5,-38.2,-99.9,50,17,3,30.19,30.10,18,3,23,0.00
2012-12-4,81.5,68.0,58.8,60.0,-34.2,-99.9,50,17,5,30.20,30.09,13,3,17,0.00
2012-12-5,80.8,65.6,56.9,31.6,-98.5,-99.9,17,0,8,30.11,29.98,11,1,14,0.05
2012-12-6,81.9,69.6,59.8,39.9,-91.0,-99.9,23,1,1,29.99,29.85,9,2,14,0.01
2012-12-7,83.3,69.9,61.1,55.8,-93.5,-99.9,39,1,1,29.93,29.84,10,2,14,0.01
2012-12-8,85.5,71.1,62.9,27.0,-98.4,-99.9,12,0,8,29.99,29.89,12,2,19,0.42
2012-12-9,84.8,71.9,64.1,-99.9,-99.9,-99.9,0,0,100,30.03,29.94,9,1,13,0.01
2012-12-10,84.7,73.8,65.4,-99.9,-99.9,-99.9,0,0,100,29.96,29.82,16,4,26,0.02
2012-12-11,80.3,74.7,71.0,-99.9,-99.9,-99.9,0,0,100,29.98,29.84,12,2,20,0.24
2012-12-12,79.7,74.2,68.8,-99.9,-99.9,-99.9,0,0,100,30.02,29.93,18,2,30,0.29
2012-12-13,74.4,68.6,61.6,10.1,-97.8,-99.9,9,0,1,30.10,29.98,15,6,20,0.01
2012-12-14,76.6,65.2,58.5,45.2,-78.2,-99.9,34,3,1,30.13,30.01,17,6,22,0.00
2012-12-15,79.6,68.1,59.3,59.1,-60.0,-99.9,52,10,2,30.07,29.96,11,2,15,0.00
2012-12-16,82.4,69.2,60.6,49.0,-75.1,-99.9,32,3,4,30.00,29.89,10,2,13,0.00
2012-12-17,80.4,71.2,63.7,-99.9,-99.9,-99.9,0,0,100,29.94,29.84,13,2,19,0.00
2012-12-18,81.3,71.4,63.7,-99.9,-99.9,-99.9,0,0,100,29.98,29.84,14,2,20,0.02
2012-12-19,80.3,65.0,52.8,59.1,-53.5,-99.9,52,14,21,30.06,29.97,7,1,10,0.00
2012-12-20,81.3,70.4,57.7,53.7,-82.4,-99.9,40,3,2,30.04,29.90,17,4,24,0.01
2012-12-21,73.5,61.6,49.4,46.0,-19.7,-99.9,55,24,1,30.16,29.90,21,11,30,0.22
2012-12-22,64.1,52.5,42.3,39.2,6.3,-99.9,55,30,1,30.25,30.15,16,5,22,0.00
2012-12-23,70.7,45.7,37.1,53.1,-66.0,-99.9,54,9,1,30.21,30.08,9,0,11,0.00
2012-12-24,75.2,61.4,50.1,55.3,-58.0,-99.9,50,11,2,30.09,29.92,10,1,13,0.00
2012-12-25,78.0,66.3,55.4,57.6,-55.7,-99.9,51,12,2,29.97,29.84,11,3,17,0.00
2012-12-26,80.8,68.6,60.2,-99.9,-99.9,-99.9,0,0,100,29.96,29.78,21,7,33,0.10
2012-12-27,67.3,56.7,47.4,49.1,-61.0,-99.9,54,12,5,30.03,29.94,11,2,15,0.00
2012-12-28,71.6,60.5,45.2,31.3,-91.4,-99.9,25,1,1,30.02,29.88,12,1,15,0.13
2012-12-29,79.8,70.2,58.4,-99.9,-99.9,-99.9,0,0,100,30.10,29.85,18,8,25,0.00
2012-12-30,61.0,52.5,43.3,43.4,-45.3,-99.9,55,19,3,30.27,30.10,18,8,24,0.00
2012-12-31,76.1,59.5,45.5,57.6,-54.7,-99.9,53,14,2,30.26,30.11,15,2,21,0.00